Terminal Aerodrome Forecast
Issued by NWS Oklahoma City, OK

Home | Current Version | Previous Version | Text Only | Print | Product List | Glossary On
Versions: 1 2 3 4 5 6 7 8 9 10 11 12 13 14 15
000
FTUS44 KOUN 280522
TAFOUN
TAF
KOUN 280522Z 2806/2906 10011KT P6SM SCT050 BKN100
      TEMPO 2806/2809 -SHRA
     FM281200 24009KT 6SM BR OVC015
     FM281800 36006KT P6SM OVC025
     FM282100 11008KT P6SM OVC050
     FM290000 08008KT P6SM OVC040 PROB30 2902/2906 2SM TSRA
      OVC040CB=

USA.gov is the U.S. government's official web portal to all federal, state and local government web resources and services.